Rubidoux, California
Current Conditions -  °F | °C
As of 2:53 PM on Monday 22 Dec 2014 (Local Time) from KRAL Reporting Station
Clear Clear  
Wind Chill: 74°   Ceiling: Unl
Heat Index: 74°   Visibility: 10mi
Dew Point: 48°   Wind: 0mph
Humidity: 40%   Direction: NA
Pressure: 29.95"   Gusts: NA
Location:  33.9957°N, 117.412°W
Report Text: KRAL 222253Z 00000KT 10SM CLR 23/09 A2995 RMK AO2 SLP130 T02330089
Loading
Personal Weather Stations






























Interactive Weather Map New forecast layout! Learn more

10-Day Weather Forecast

Advertisements
Track Severe Weather on mobile